Time;durP1;ratioP1;P1;durP2;ratioP2;P2;SDS_P1;SDS_P2;PMS_P1;PMS_P2;Temp;Humidity;BMP_temperature;BMP_pressure;BME280_temperature;BME280_humidity;BME280_pressure;Samples;Min_cycle;Max_cycle;Signal;HPM_P1;HPM_P2
2023/06/19 00:00:43;;;;;;;8.88;6.68;;;;;;;23.54;48.59;100777.03;5022865;28;20447;-47
2023/06/19 00:03:09;;;;;;;8.02;7.03;;;;;;;23.53;48.71;100778.91;5022651;28;20030;-45
2023/06/19 00:05:34;;;;;;;9.02;6.18;;;;;;;23.54;48.73;100779.75;5022072;28;20077;-47
2023/06/19 00:08:03;;;;;;;8.93;6.55;;;;;;;23.53;48.89;100778.91;5018536;28;20054;-45
2023/06/19 00:10:28;;;;;;;7.13;6.43;;;;;;;23.52;48.78;100788.06;5022957;28;20026;-47
2023/06/19 00:12:54;;;;;;;7.13;6.43;;;;;;;23.52;48.83;100782.63;5026645;28;20463;-48
2023/06/19 00:15:19;;;;;;;7.18;6.47;;;;;;;23.52;49.14;100789.97;5021949;28;20039;-45
2023/06/19 00:17:44;;;;;;;7.30;6.60;;;;;;;23.52;49.06;100792.69;5021721;28;20033;-48
2023/06/19 00:20:10;;;;;;;9.82;7.05;;;;;;;23.51;49.15;100793.69;5023160;28;20061;-47
2023/06/19 00:22:35;;;;;;;8.32;6.45;;;;;;;23.50;48.78;100795.56;5018035;28;20058;-44
2023/06/19 00:25:01;;;;;;;8.57;6.75;;;;;;;23.51;49.39;100799.13;5021802;28;20030;-47
2023/06/19 00:27:26;;;;;;;6.75;6.05;;;;;;;23.51;49.04;100804.56;5022457;28;20361;-46
2023/06/19 00:29:52;;;;;;;9.25;6.60;;;;;;;23.50;48.92;100809.16;5022600;28;20087;-46
2023/06/19 00:32:17;;;;;;;7.32;6.63;;;;;;;23.50;48.71;100809.16;5022648;28;20033;-46
2023/06/19 00:34:45;;;;;;;7.35;6.13;;;;;;;23.50;49.09;100813.75;5018775;28;20441;-48
2023/06/19 00:37:13;;;;;;;7.20;6.18;;;;;;;23.48;49.14;100822.09;5020848;28;20038;-47
2023/06/19 00:39:40;;;;;;;6.55;5.95;;;;;;;23.48;48.81;100819.38;5021675;28;20598;-47
2023/06/19 00:42:05;;;;;;;7.88;6.30;;;;;;;23.48;48.89;100816.66;5020288;28;20120;-48
2023/06/19 00:44:31;;;;;;;8.32;6.45;;;;;;;23.47;49.09;100820.38;5020745;28;20124;-44
2023/06/19 00:47:02;;;;;;;9.18;6.22;;;;;;;23.47;49.41;100825.81;5021069;28;20029;-47
2023/06/19 00:49:30;;;;;;;8.07;6.28;;;;;;;23.47;49.51;100830.41;5020667;28;20506;-46
2023/06/19 00:51:55;;;;;;;6.78;6.00;;;;;;;23.47;49.49;100827.69;5022034;28;20025;-48
2023/06/19 00:54:21;;;;;;;9.73;6.47;;;;;;;23.46;49.24;100831.47;5020805;28;20386;-47
2023/06/19 00:56:48;;;;;;;6.45;5.80;;;;;;;23.46;49.26;100843.16;5021279;28;20065;-47
2023/06/19 00:59:19;;;;;;;7.95;5.72;;;;;;;23.45;49.62;100833.31;5019772;28;20128;-47
2023/06/19 01:01:45;;;;;;;8.55;6.38;;;;;;;23.46;49.68;100842.34;5019237;28;20029;-46
2023/06/19 01:04:11;;;;;;;7.70;6.35;;;;;;;23.45;49.57;100840.63;5021333;28;20034;-46
2023/06/19 01:06:46;;;;;;;7.55;6.30;;;;;;;23.45;49.51;100846.91;5017898;28;20064;-44
2023/06/19 01:09:15;;;;;;;6.30;5.70;;;;;;;23.45;49.16;100846.06;5023717;28;20029;-43
2023/06/19 01:11:48;;;;;;;6.60;5.90;;;;;;;23.44;49.21;100845.22;5019152;28;20472;-47
2023/06/19 01:14:26;;;;;;;7.25;5.88;;;;;;;23.46;49.42;100847.78;5019273;28;20037;-47
2023/06/19 01:16:52;;;;;;;6.60;5.82;;;;;;;23.43;49.59;100841.66;5019015;28;20036;-47
2023/06/19 01:19:21;;;;;;;6.22;5.63;;;;;;;23.43;49.29;100855.22;5021760;28;20038;-47
2023/06/19 01:21:48;;;;;;;7.47;5.43;;;;;;;23.41;50.04;100862.72;5019258;28;20487;-47
2023/06/19 01:24:14;;;;;;;5.68;5.18;;;;;;;23.42;49.99;100863.59;5020480;28;20025;-48
2023/06/19 01:26:40;;;;;;;5.97;5.35;;;;;;;23.42;49.52;100859.00;5016703;28;20502;-48
2023/06/19 01:29:05;;;;;;;6.25;5.32;;;;;;;23.41;49.17;100862.72;5020593;28;20029;-45
2023/06/19 01:31:36;;;;;;;6.32;5.65;;;;;;;23.42;49.77;100852.72;5018100;28;20030;-44
2023/06/19 01:34:06;;;;;;;5.82;5.22;;;;;;;23.41;49.93;100860.00;5019633;28;20484;-45
2023/06/19 01:36:32;;;;;;;5.72;5.13;;;;;;;23.41;50.07;100853.72;5019537;28;20025;-47
2023/06/19 01:38:59;;;;;;;6.30;4.93;;;;;;;23.40;50.19;100861.06;5019464;28;20364;-47
2023/06/19 01:41:25;;;;;;;6.53;5.50;;;;;;;23.39;49.81;100864.78;5018673;28;20034;-46
2023/06/19 01:43:51;;;;;;;8.23;5.03;;;;;;;23.39;49.79;100862.06;5021127;28;20571;-46
2023/06/19 01:46:17;;;;;;;6.18;5.05;;;;;;;23.38;50.46;100863.09;5020222;28;20026;-46
2023/06/19 01:48:43;;;;;;;6.93;5.25;;;;;;;23.39;50.33;100870.22;5019786;28;20357;-46
2023/06/19 01:51:08;;;;;;;6.25;4.97;;;;;;;23.37;50.20;100872.28;5020302;28;20032;-46
2023/06/19 01:53:37;;;;;;;7.88;5.20;;;;;;;23.37;50.33;100875.00;5020104;28;20049;-46
2023/06/19 01:56:02;;;;;;;7.75;5.65;;;;;;;23.37;50.91;100876.88;5020612;28;20061;-46
2023/06/19 01:58:27;;;;;;;6.68;5.10;;;;;;;23.36;50.81;100878.75;5020366;28;20491;-45
2023/06/19 02:00:53;;;;;;;5.28;4.78;;;;;;;23.37;50.69;100885.03;5018700;28;20045;-44
2023/06/19 02:03:18;;;;;;;6.78;4.70;;;;;;;23.36;51.01;100889.63;5019495;28;20128;-48
2023/06/19 02:05:44;;;;;;;5.50;4.43;;;;;;;23.35;50.36;100892.50;5013822;28;20054;-46
2023/06/19 02:08:09;;;;;;;5.35;4.80;;;;;;;23.35;50.96;100897.94;5017265;28;20045;-46
2023/06/19 02:10:35;;;;;;;7.65;4.32;;;;;;;23.35;51.02;100887.91;5020983;28;20473;-46
2023/06/19 02:13:00;;;;;;;4.85;4.28;;;;;;;23.34;51.30;100885.38;5019813;28;20038;-46
2023/06/19 02:15:25;;;;;;;5.20;4.68;;;;;;;23.34;51.17;100893.53;5019510;28;20390;-48
2023/06/19 02:17:54;;;;;;;7.18;4.63;;;;;;;23.33;51.09;100898.13;5020151;28;20533;-46
2023/06/19 02:20:21;;;;;;;4.70;3.97;;;;;;;23.32;51.33;100896.44;5021103;28;20121;-44
2023/06/19 02:22:46;;;;;;;5.03;4.25;;;;;;;23.33;51.13;100892.69;5018168;28;20049;-49
2023/06/19 02:25:12;;;;;;;4.03;3.35;;;;;;;23.34;51.63;100890.81;5016575;28;20465;-48
2023/06/19 02:27:37;;;;;;;4.57;4.10;;;;;;;23.32;50.95;100896.44;5018036;28;20083;-48
2023/06/19 02:30:03;;;;;;;4.35;3.80;;;;;;;23.33;51.32;100908.16;5018753;28;20060;-47
2023/06/19 02:32:28;;;;;;;4.05;3.38;;;;;;;23.31;51.14;100902.88;5022968;28;20392;-47
2023/06/19 02:34:53;;;;;;;5.78;3.63;;;;;;;23.32;51.64;100906.44;5020996;28;20040;-44
2023/06/19 02:37:19;;;;;;;5.35;3.50;;;;;;;23.32;51.16;100898.28;5021313;28;20029;-44
2023/06/19 02:39:44;;;;;;;4.72;3.75;;;;;;;23.32;51.44;100907.31;5019449;28;20033;-46
2023/06/19 02:42:10;;;;;;;4.18;3.30;;;;;;;23.31;51.81;100896.63;5016426;28;20044;-46
2023/06/19 02:44:35;;;;;;;4.55;2.80;;;;;;;23.30;51.79;100895.75;5018382;28;20041;-43
2023/06/19 02:47:01;;;;;;;3.28;2.97;;;;;;;23.31;51.41;100899.34;5019687;28;20117;-44
2023/06/19 02:49:26;;;;;;;6.25;3.20;;;;;;;23.30;51.71;100894.91;5019479;28;20057;-46
2023/06/19 02:51:51;;;;;;;4.80;3.25;;;;;;;23.29;51.52;100893.25;5020592;28;20041;-45
2023/06/19 02:54:17;;;;;;;3.55;3.20;;;;;;;23.30;51.87;100897.63;5020334;28;20068;-45
2023/06/19 02:56:42;;;;;;;4.47;3.40;;;;;;;23.29;52.26;100899.50;5020457;28;20549;-47
2023/06/19 02:59:08;;;;;;;3.40;3.00;;;;;;;23.29;51.78;100899.50;5018539;28;20120;-45
2023/06/19 03:01:33;;;;;;;4.38;3.17;;;;;;;23.28;52.26;100908.66;5017388;28;20026;-48
2023/06/19 03:03:59;;;;;;;4.03;2.50;;;;;;;23.28;52.39;100914.09;5016081;28;20038;-47
2023/06/19 03:06:25;;;;;;;3.65;2.60;;;;;;;23.29;52.21;100913.09;5016845;28;20080;-48
2023/06/19 03:08:51;;;;;;;4.57;2.67;;;;;;;23.28;52.12;100915.97;5020001;28;20092;-44
2023/06/19 03:11:16;;;;;;;4.55;2.72;;;;;;;23.28;52.00;100918.69;5019450;28;20403;-47
2023/06/19 03:13:51;;;;;;;4.93;2.55;;;;;;;23.28;52.40;100915.97;5019782;28;20029;-47
2023/06/19 03:16:17;;;;;;;3.05;2.70;;;;;;;23.28;52.68;100926.84;5019741;28;20045;-46
2023/06/19 03:18:44;;;;;;;3.38;2.55;;;;;;;23.27;52.30;100934.16;5019811;28;20033;-45
2023/06/19 03:21:10;;;;;;;4.90;2.65;;;;;;;23.27;52.58;100931.44;5018464;28;20041;-46
2023/06/19 03:23:36;;;;;;;4.40;2.38;;;;;;;23.25;52.47;100921.75;5015490;28;20044;-44
2023/06/19 03:26:01;;;;;;;2.63;2.30;;;;;;;23.26;52.28;100929.75;5018527;28;20030;-48
2023/06/19 03:28:27;;;;;;;3.05;2.60;;;;;;;23.25;52.65;100922.63;5020721;28;20049;-45
2023/06/19 03:30:52;;;;;;;3.03;2.50;;;;;;;23.25;52.80;100911.75;5024529;28;20034;-48
2023/06/19 03:33:18;;;;;;;4.45;2.63;;;;;;;23.25;52.25;100925.34;5022543;28;20120;-48
2023/06/19 03:35:43;;;;;;;4.80;2.67;;;;;;;23.25;52.81;100935.34;5022203;28;20037;-46
2023/06/19 03:38:08;;;;;;;3.47;2.40;;;;;;;23.24;52.78;100931.78;5022024;28;20212;-46
2023/06/19 03:40:34;;;;;;;2.65;2.20;;;;;;;23.25;52.60;100935.34;5024945;28;20140;-47
2023/06/19 03:42:59;;;;;;;4.63;2.70;;;;;;;23.24;52.75;100948.09;5020943;28;20034;-48
2023/06/19 03:45:24;;;;;;;5.47;2.50;;;;;;;23.23;52.75;100944.53;5021118;28;20052;-47
2023/06/19 03:47:50;;;;;;;2.55;2.35;;;;;;;23.22;53.14;100950.16;5022613;28;20429;-44
2023/06/19 03:50:15;;;;;;;3.95;2.97;;;;;;;23.23;53.32;100951.84;5021282;28;20037;-44
2023/06/19 03:52:40;;;;;;;3.33;2.80;;;;;;;23.23;53.06;100957.28;5021959;28;20030;-44
2023/06/19 03:55:06;;;;;;;4.53;2.45;;;;;;;23.23;52.95;100960.00;5022777;28;20044;-48
2023/06/19 03:57:31;;;;;;;3.33;2.28;;;;;;;23.21;52.82;100964.78;5022334;28;20049;-47
2023/06/19 03:59:57;;;;;;;3.85;2.53;;;;;;;23.21;53.46;100960.19;5022726;28;20491;-44
2023/06/19 04:02:22;;;;;;;2.65;2.45;;;;;;;23.21;52.92;100964.78;5022744;28;20044;-46
2023/06/19 04:04:48;;;;;;;3.42;2.22;;;;;;;23.20;53.45;100963.91;5021837;28;20474;-48
2023/06/19 04:07:13;;;;;;;3.35;2.60;;;;;;;23.21;53.76;100975.63;5019296;28;20041;-47
2023/06/19 04:09:39;;;;;;;3.42;2.85;;;;;;;23.20;53.46;100966.63;5022382;28;20033;-44
2023/06/19 04:12:05;;;;;;;3.13;2.63;;;;;;;23.20;53.33;100968.50;5023232;28;20034;-47
2023/06/19 04:14:30;;;;;;;6.30;2.35;;;;;;;23.20;53.09;100980.19;5023543;28;20045;-47
2023/06/19 04:16:56;;;;;;;4.75;2.45;;;;;;;23.20;53.11;100985.63;5022250;28;20387;-48
2023/06/19 04:19:21;;;;;;;3.63;2.38;;;;;;;23.20;53.51;100990.22;5020453;28;20041;-48
2023/06/19 04:21:46;;;;;;;2.83;2.53;;;;;;;23.20;54.09;100995.66;5019576;28;20038;-48
2023/06/19 04:24:12;;;;;;;3.35;2.50;;;;;;;23.19;53.46;100989.38;5021179;28;20511;-44
2023/06/19 04:26:37;;;;;;;3.28;2.47;;;;;;;23.18;53.78;100995.81;5022916;28;20042;-45
2023/06/19 04:29:03;;;;;;;3.33;2.60;;;;;;;23.19;54.06;100993.97;5021957;28;20108;-46
2023/06/19 04:31:28;;;;;;;2.92;2.63;;;;;;;23.18;54.01;101001.25;5022600;28;20041;-43
2023/06/19 04:33:56;;;;;;;4.57;2.65;;;;;;;23.18;53.83;101005.84;5023266;28;20026;-46
2023/06/19 04:36:22;;;;;;;4.82;2.97;;;;;;;23.17;53.52;101005.03;5023673;28;20491;-48
2023/06/19 04:38:51;;;;;;;5.57;2.70;;;;;;;23.17;53.97;101006.88;5020430;28;20108;-47
2023/06/19 04:41:16;;;;;;;5.55;3.22;;;;;;;23.17;54.46;101010.44;5022656;28;20029;-43
2023/06/19 04:43:43;;;;;;;4.45;2.80;;;;;;;23.17;54.38;101001.44;5022352;28;20048;-49
2023/06/19 04:46:08;;;;;;;4.40;2.60;;;;;;;23.16;54.10;101019.63;5021639;28;20029;-48
2023/06/19 04:48:36;;;;;;;4.50;2.75;;;;;;;23.17;53.76;101017.72;5021590;28;20160;-45
2023/06/19 04:51:02;;;;;;;4.03;2.67;;;;;;;23.16;54.05;101019.63;5021667;28;20037;-48
2023/06/19 04:53:27;;;;;;;3.33;2.65;;;;;;;23.18;54.39;101024.88;5024067;28;20082;-45
2023/06/19 04:55:55;;;;;;;3.97;2.65;;;;;;;23.17;54.62;101018.59;5019229;28;20029;-48
2023/06/19 04:58:20;;;;;;;4.60;3.03;;;;;;;23.17;54.62;101015.00;5020299;28;20730;-46
2023/06/19 05:00:50;;;;;;;5.22;2.70;;;;;;;23.16;54.27;101018.78;5020773;28;20041;-48
2023/06/19 05:03:19;;;;;;;4.70;3.13;;;;;;;23.16;54.96;101018.78;5021623;28;20034;-45
2023/06/19 05:05:45;;;;;;;5.05;2.92;;;;;;;23.15;54.75;101020.66;5018065;28;20061;-46
2023/06/19 05:08:10;;;;;;;3.45;2.47;;;;;;;23.16;54.47;101026.91;5018637;28;20091;-46
2023/06/19 05:10:36;;;;;;;4.72;2.63;;;;;;;23.16;55.41;101021.50;5017136;28;20041;-43
2023/06/19 05:13:01;;;;;;;3.08;2.53;;;;;;;23.16;54.88;101021.50;5015314;28;20038;-43
2023/06/19 05:15:28;;;;;;;3.35;2.60;;;;;;;23.15;54.75;101025.22;5017247;28;20500;-44
2023/06/19 05:17:53;;;;;;;5.57;2.95;;;;;;;23.15;55.19;101025.22;5019906;28;20035;-47
2023/06/19 05:20:19;;;;;;;4.68;2.97;;;;;;;23.15;54.70;101025.22;5015176;28;20125;-47
2023/06/19 05:22:45;;;;;;;4.63;2.75;;;;;;;23.14;54.95;101035.25;5020232;28;20075;-44
2023/06/19 05:25:10;;;;;;;4.15;2.63;;;;;;;23.15;54.84;101042.38;5016872;28;20049;-45
2023/06/19 05:27:36;;;;;;;5.88;2.95;;;;;;;23.15;55.14;101041.50;5019126;28;20480;-43
2023/06/19 05:30:01;;;;;;;3.22;2.63;;;;;;;23.15;55.33;101038.78;5017516;28;20064;-42
2023/06/19 05:32:27;;;;;;;4.75;2.83;;;;;;;23.14;55.49;101046.09;5021710;28;20125;-46
2023/06/19 05:34:52;;;;;;;5.03;2.58;;;;;;;23.14;55.58;101048.81;5020461;28;20391;-45
2023/06/19 05:37:18;;;;;;;5.18;2.97;;;;;;;23.15;55.41;101036.09;5021495;28;20048;-46
2023/06/19 05:39:43;;;;;;;4.82;2.80;;;;;;;23.14;55.54;101045.28;5020340;28;20366;-46
2023/06/19 05:42:09;;;;;;;3.25;2.78;;;;;;;23.14;55.45;101050.69;5020971;28;20049;-47
2023/06/19 05:44:35;;;;;;;3.90;2.78;;;;;;;23.14;55.31;101053.41;5020417;28;20387;-45
2023/06/19 05:47:00;;;;;;;4.22;2.67;;;;;;;23.14;55.38;101056.13;5021103;28;20037;-45
2023/06/19 05:49:26;;;;;;;4.47;2.58;;;;;;;23.13;55.19;101054.41;5018427;28;20034;-44
2023/06/19 05:51:51;;;;;;;3.10;2.72;;;;;;;23.15;55.01;101065.97;5015939;28;20037;-46
2023/06/19 05:54:17;;;;;;;4.20;3.05;;;;;;;23.14;55.67;101058.84;5021306;28;20033;-47
2023/06/19 05:56:43;;;;;;;4.20;2.58;;;;;;;23.13;55.12;101055.28;5020430;28;20084;-47
2023/06/19 05:59:08;;;;;;;4.55;2.63;;;;;;;23.14;55.62;101058.84;5020368;28;20180;-43
2023/06/19 06:01:33;;;;;;;5.35;2.97;;;;;;;23.14;55.48;101051.53;5021924;28;20176;-47
2023/06/19 06:04:01;;;;;;;3.92;3.10;;;;;;;23.15;55.41;101052.38;5022586;28;20068;-42
2023/06/19 06:06:27;;;;;;;3.85;3.13;;;;;;;23.16;55.87;101059.53;5019464;28;20139;-48
2023/06/19 06:08:54;;;;;;;5.43;2.88;;;;;;;23.15;55.51;101057.81;5020078;28;20060;-48
2023/06/19 06:11:20;;;;;;;3.67;2.72;;;;;;;23.15;56.05;101060.53;5013841;28;20038;-45
2023/06/19 06:13:45;;;;;;;4.25;3.00;;;;;;;23.15;55.87;101068.69;5021014;28;20032;-46
2023/06/19 06:16:10;;;;;;;4.10;3.45;;;;;;;23.16;56.04;101070.38;5020346;28;20484;-46
2023/06/19 06:18:36;;;;;;;5.43;3.15;;;;;;;23.16;55.87;101073.09;5021371;28;20507;-47
2023/06/19 06:21:02;;;;;;;3.80;2.95;;;;;;;23.16;55.97;101087.53;5018592;28;20409;-46
2023/06/19 06:23:27;;;;;;;3.53;3.20;;;;;;;23.16;55.41;101092.13;5020963;28;20022;-44
2023/06/19 06:25:54;;;;;;;3.35;3.05;;;;;;;23.16;55.51;101097.53;5020358;28;20294;-43
2023/06/19 06:28:19;;;;;;;4.25;3.20;;;;;;;23.15;55.60;101093.13;5020205;28;20033;-48
2023/06/19 06:30:45;;;;;;;5.38;3.47;;;;;;;23.18;55.70;101103.66;5020758;28;20487;-46
2023/06/19 06:33:10;;;;;;;7.10;3.35;;;;;;;23.17;55.26;101105.53;5024556;28;20092;-45
2023/06/19 06:35:36;;;;;;;4.55;3.60;;;;;;;23.16;55.72;101106.53;5019513;28;20041;-48
2023/06/19 06:38:04;;;;;;;7.13;3.97;;;;;;;23.16;55.23;101102.97;5020918;28;20372;-47
2023/06/19 06:40:29;;;;;;;4.18;3.78;;;;;;;23.16;55.08;101106.53;5020472;28;20061;-46
2023/06/19 06:42:55;;;;;;;4.32;3.42;;;;;;;23.16;55.09;101116.56;5020840;28;20081;-46
2023/06/19 06:45:20;;;;;;;4.68;4.10;;;;;;;23.17;55.14;101120.97;5021477;28;20045;-44
2023/06/19 06:47:46;;;;;;;6.40;3.95;;;;;;;23.17;54.89;101121.81;5019652;28;20353;-47
2023/06/19 06:50:11;;;;;;;5.60;3.60;;;;;;;23.18;54.50;101128.09;5019459;28;20040;-46
2023/06/19 06:52:37;;;;;;;4.60;3.80;;;;;;;23.18;55.05;101131.66;5019787;28;20072;-45
2023/06/19 06:55:03;;;;;;;4.65;4.15;;;;;;;23.17;54.88;101129.97;5020482;28;20037;-45
2023/06/19 06:57:29;;;;;;;5.30;4.30;;;;;;;23.19;54.97;101137.97;5020926;28;20041;-43
2023/06/19 06:59:54;;;;;;;6.63;4.18;;;;;;;23.19;54.72;101136.06;5020365;28;20040;-45
2023/06/19 07:02:19;;;;;;;6.57;4.22;;;;;;;23.20;54.53;101131.47;5024534;28;20069;-45
2023/06/19 07:04:45;;;;;;;7.68;4.43;;;;;;;23.19;54.64;101127.09;5024573;28;20053;-45
2023/06/19 07:07:10;;;;;;;4.78;4.28;;;;;;;23.19;54.64;101137.97;5021385;28;20117;-43
2023/06/19 07:09:36;;;;;;;6.15;4.63;;;;;;;23.18;54.68;101137.09;5024185;28;20072;-46
2023/06/19 07:12:04;;;;;;;5.28;4.20;;;;;;;23.18;54.57;101144.41;5022399;28;20049;-45
2023/06/19 07:14:29;;;;;;;4.78;4.28;;;;;;;23.20;54.65;101147.78;5024900;28;20061;-44
2023/06/19 07:16:55;;;;;;;5.38;4.53;;;;;;;23.19;54.44;101151.53;5023543;28;20069;-47
2023/06/19 07:19:20;;;;;;;6.07;4.70;;;;;;;23.19;54.60;101157.81;5023251;28;20543;-44
2023/06/19 07:21:45;;;;;;;5.43;4.90;;;;;;;23.21;54.16;101155.78;5027311;28;20033;-45
2023/06/19 07:24:11;;;;;;;5.57;4.97;;;;;;;23.21;54.14;101160.38;5021731;28;20030;-43
2023/06/19 07:26:36;;;;;;;5.97;5.40;;;;;;;23.20;54.24;101167.63;5023965;28;20111;-46
2023/06/19 07:29:02;;;;;;;5.85;5.18;;;;;;;23.21;54.54;101154.94;5024387;28;20029;-45
2023/06/19 07:31:27;;;;;;;5.35;4.85;;;;;;;23.21;54.77;101171.22;5023370;28;20064;-48
2023/06/19 07:33:53;;;;;;;5.85;5.35;;;;;;;23.22;54.74;101173.75;5026157;28;20113;-47
2023/06/19 07:36:18;;;;;;;7.57;5.18;;;;;;;23.22;54.16;101178.34;5022863;28;20045;-44
2023/06/19 07:38:44;;;;;;;7.15;5.13;;;;;;;23.22;54.71;101178.34;5023372;28;20528;-47
2023/06/19 07:41:11;;;;;;;10.43;5.75;;;;;;;23.22;54.52;101173.75;5024259;28;20038;-44
2023/06/19 07:43:37;;;;;;;5.78;5.28;;;;;;;23.22;54.58;101183.78;5018782;28;20058;-47
2023/06/19 07:46:03;;;;;;;6.90;5.93;;;;;;;23.22;54.16;101183.78;5024957;28;20033;-47
2023/06/19 07:48:29;;;;;;;7.40;6.32;;;;;;;23.23;54.69;101186.31;5022831;28;20380;-46
2023/06/19 07:50:54;;;;;;;8.50;5.80;;;;;;;23.24;54.15;101189.88;5022961;28;20036;-47
2023/06/19 07:53:20;;;;;;;6.95;6.25;;;;;;;23.23;54.37;101182.75;5023348;28;20069;-43
2023/06/19 07:55:45;;;;;;;6.22;5.63;;;;;;;23.23;53.88;101175.47;5023675;28;20120;-46
2023/06/19 07:58:11;;;;;;;6.55;5.93;;;;;;;23.25;53.88;101177.13;5022800;28;20455;-48
2023/06/19 08:00:36;;;;;;;8.70;5.70;;;;;;;23.25;54.27;101183.44;5023556;28;20026;-47
2023/06/19 08:03:02;;;;;;;6.60;5.88;;;;;;;23.26;54.50;101189.72;5024291;28;20033;-46
2023/06/19 08:05:27;;;;;;;6.55;5.18;;;;;;;23.27;54.19;101184.13;5020229;28;20141;-47
2023/06/19 08:07:53;;;;;;;8.02;6.68;;;;;;;23.27;54.56;101180.56;5021779;28;20033;-43
2023/06/19 08:10:18;;;;;;;9.07;5.95;;;;;;;23.27;54.27;101184.13;5024074;28;20380;-44
2023/06/19 08:12:44;;;;;;;7.57;6.35;;;;;;;23.27;54.33;101183.28;5021335;28;20481;-45
2023/06/19 08:15:11;;;;;;;7.05;5.97;;;;;;;23.27;54.42;101181.41;5022595;28;20128;-43
2023/06/19 08:17:36;;;;;;;9.77;6.32;;;;;;;23.28;54.38;101183.06;5023288;28;20388;-46
2023/06/19 08:20:05;;;;;;;6.30;5.57;;;;;;;23.29;54.00;101192.94;5024084;28;20033;-45
2023/06/19 08:22:30;;;;;;;8.43;5.90;;;;;;;23.30;54.38;101191.06;5020670;28;20361;-43
2023/06/19 08:24:56;;;;;;;7.18;6.05;;;;;;;23.31;54.36;101195.50;5023197;28;20037;-46
2023/06/19 08:27:21;;;;;;;8.70;6.03;;;;;;;23.32;54.77;101191.72;5022697;28;20034;-45
2023/06/19 08:29:47;;;;;;;6.50;5.90;;;;;;;23.33;54.61;101185.28;5023068;28;20029;-45
2023/06/19 08:32:12;;;;;;;8.20;5.65;;;;;;;23.32;54.56;101184.44;5024424;28;20649;-47
2023/06/19 08:34:38;;;;;;;7.50;5.30;;;;;;;23.32;54.28;101184.44;5020953;28;20040;-46
2023/06/19 08:37:04;;;;;;;7.22;5.53;;;;;;;23.33;54.00;101188.00;5023361;28;20042;-44
2023/06/19 08:39:30;;;;;;;8.73;6.40;;;;;;;23.33;53.93;101194.28;5021603;28;20136;-46
2023/06/19 08:41:55;;;;;;;8.18;5.43;;;;;;;23.34;53.73;101190.56;5019136;28;20104;-44
2023/06/19 08:44:21;;;;;;;6.38;5.78;;;;;;;23.35;54.36;101210.41;5023120;28;20049;-43
2023/06/19 08:46:46;;;;;;;7.20;5.63;;;;;;;23.35;54.30;101216.69;5023481;28;20136;-46
2023/06/19 08:49:13;;;;;;;8.13;6.07;;;;;;;23.35;54.30;101222.13;5022417;28;20399;-42
2023/06/19 08:51:39;;;;;;;6.68;6.07;;;;;;;23.36;54.10;101218.41;5022678;28;20030;-46
2023/06/19 08:54:06;;;;;;;7.72;6.32;;;;;;;23.34;54.09;101220.44;5022036;28;20493;-44
2023/06/19 08:56:33;;;;;;;8.23;5.80;;;;;;;23.34;53.72;101220.44;5022574;28;20034;-45
2023/06/19 08:59:15;;;;;;;9.25;5.85;;;;;;;23.36;53.78;101223.84;5025763;28;20076;-44
2023/06/19 09:01:51;;;;;;;7.80;6.07;;;;;;;23.36;54.19;101234.69;5021785;28;20438;-45
2023/06/19 09:04:19;;;;;;;8.73;5.95;;;;;;;23.37;54.07;101236.38;5021797;28;20129;-43
2023/06/19 09:06:48;;;;;;;10.40;6.38;;;;;;;23.37;54.26;101249.97;5018395;28;20078;-45
2023/06/19 09:09:15;;;;;;;7.65;6.20;;;;;;;23.37;54.12;101244.53;5021677;28;20037;-47
2023/06/19 09:11:43;;;;;;;10.50;6.55;;;;;;;23.37;53.71;101232.81;5022049;28;20071;-46
2023/06/19 09:14:10;;;;;;;8.27;6.60;;;;;;;23.38;54.46;101237.22;5023072;28;20095;-46
2023/06/19 09:16:42;;;;;;;8.23;6.85;;;;;;;23.38;53.90;101238.09;5022240;28;20068;-46
2023/06/19 09:19:07;;;;;;;8.50;6.63;;;;;;;23.38;53.87;101240.81;5022470;28;20414;-47
2023/06/19 09:21:36;;;;;;;7.50;6.45;;;;;;;23.38;54.26;101243.53;5020178;28;20088;-47
2023/06/19 09:24:08;;;;;;;6.72;6.03;;;;;;;23.39;54.02;101244.38;5020498;28;20656;-44
2023/06/19 09:26:34;;;;;;;13.63;5.93;;;;;;;23.39;54.47;101253.38;5020045;28;20045;-47
2023/06/19 09:29:13;;;;;;;7.72;6.30;;;;;;;23.40;53.92;101246.09;5022333;28;20034;-47
2023/06/19 09:31:41;;;;;;;7.93;5.93;;;;;;;23.41;54.17;101253.19;5023063;28;20487;-43
2023/06/19 09:34:07;;;;;;;7.60;5.97;;;;;;;23.41;54.28;101259.47;5022453;28;20034;-43
2023/06/19 09:36:33;;;;;;;7.53;5.55;;;;;;;23.42;53.98;101250.31;5018110;28;20553;-45
2023/06/19 09:38:59;;;;;;;8.60;6.05;;;;;;;23.42;53.63;101252.19;5019729;28;20034;-46
2023/06/19 09:41:25;;;;;;;11.13;5.97;;;;;;;23.42;53.62;101255.75;5021647;28;20057;-47
2023/06/19 09:43:59;;;;;;;10.45;6.20;;;;;;;23.43;53.79;101256.59;5020578;28;20480;-43
2023/06/19 09:46:29;;;;;;;8.75;5.78;;;;;;;23.44;53.50;101263.72;5021950;28;20109;-43
2023/06/19 09:48:58;;;;;;;13.40;6.15;;;;;;;23.45;53.97;101256.41;5022048;28;20112;-48
2023/06/19 09:51:30;;;;;;;11.85;5.88;;;;;;;23.45;53.27;101267.28;5020085;28;20132;-44
2023/06/19 09:53:58;;;;;;;9.18;5.18;;;;;;;23.46;53.29;101274.44;5023381;28;20060;-44
2023/06/19 09:56:25;;;;;;;8.73;6.13;;;;;;;23.45;53.74;101270.84;5016949;28;20040;-46
2023/06/19 09:58:53;;;;;;;9.82;6.13;;;;;;;23.46;53.24;101253.53;5022182;28;20487;-46
2023/06/19 10:01:19;;;;;;;9.35;6.05;;;;;;;23.47;53.70;101267.97;5020904;28;20032;-46
2023/06/19 10:03:44;;;;;;;8.45;6.68;;;;;;;23.47;53.47;101267.97;5020368;28;20396;-46
2023/06/19 10:06:17;;;;;;;9.38;6.22;;;;;;;23.47;53.14;101273.41;5018146;28;20061;-45
2023/06/19 10:08:44;;;;;;;9.63;6.82;;;;;;;23.48;53.46;101272.41;5018702;28;20029;-44
2023/06/19 10:11:13;;;;;;;10.73;6.38;;;;;;;23.47;53.39;101274.25;5020603;28;20053;-44
2023/06/19 10:13:41;;;;;;;7.93;6.10;;;;;;;23.47;53.82;101268.81;5020527;28;20029;-42
2023/06/19 10:16:23;;;;;;;7.03;6.32;;;;;;;23.49;53.45;101272.19;5021135;28;20044;-45
2023/06/19 10:18:50;;;;;;;7.75;6.00;;;;;;;23.49;53.79;101271.34;5020048;28;20383;-46
2023/06/19 10:21:20;;;;;;;9.70;6.78;;;;;;;23.50;53.32;101270.34;5020431;28;20430;-45
2023/06/19 10:23:57;;;;;;;10.32;6.88;;;;;;;23.51;53.07;101269.31;5020687;28;20026;-48
2023/06/19 10:26:33;;;;;;;9.10;6.22;;;;;;;23.51;52.92;101263.88;5022129;28;20426;-45
2023/06/19 10:28:59;;;;;;;10.02;5.85;;;;;;;23.52;53.32;101268.31;5019811;28;20113;-48
2023/06/19 10:31:24;;;;;;;7.65;6.30;;;;;;;23.53;53.12;101264.56;5018911;28;20132;-47
2023/06/19 10:33:50;;;;;;;9.15;6.32;;;;;;;23.53;53.24;101273.56;5020592;28;20030;-45
2023/06/19 10:36:22;;;;;;;7.32;6.13;;;;;;;23.53;53.17;101279.00;5023826;28;20060;-46
2023/06/19 10:38:49;;;;;;;7.90;6.13;;;;;;;23.55;53.17;101276.97;5024311;28;20030;-43
2023/06/19 10:41:19;;;;;;;9.27;6.22;;;;;;;23.55;53.38;101276.09;5025905;28;20117;-45
2023/06/19 10:43:57;;;;;;;9.07;5.85;;;;;;;23.57;53.33;101279.50;5026145;28;20021;-47
2023/06/19 10:46:24;;;;;;;7.53;5.72;;;;;;;23.56;52.92;101275.94;5023665;28;20029;-46
2023/06/19 10:48:51;;;;;;;8.50;5.93;;;;;;;23.56;53.29;101273.22;5023776;28;20050;-48
2023/06/19 10:51:20;;;;;;;6.95;5.70;;;;;;;23.56;53.10;101272.38;5024585;28;20521;-46
2023/06/19 10:53:45;;;;;;;6.30;5.70;;;;;;;23.57;52.62;101279.50;5022828;28;20036;-45
2023/06/19 10:56:11;;;;;;;7.43;5.70;;;;;;;23.57;53.09;101269.47;5024832;28;20472;-47
2023/06/19 10:58:36;;;;;;;9.23;6.30;;;;;;;23.58;52.57;101270.31;5024436;28;20072;-46
2023/06/19 11:01:02;;;;;;;7.25;6.10;;;;;;;23.58;52.92;101267.59;5024000;28;20072;-45
2023/06/19 11:03:28;;;;;;;9.23;6.00;;;;;;;23.58;52.69;101264.88;5023099;28;20502;-46
2023/06/19 11:05:53;;;;;;;8.00;5.93;;;;;;;23.59;52.92;101267.44;5021059;28;20065;-47
2023/06/19 11:08:20;;;;;;;7.00;6.20;;;;;;;23.59;52.71;101266.59;5024417;28;20036;-47
2023/06/19 11:10:46;;;;;;;6.78;6.00;;;;;;;23.60;53.15;101265.56;5024914;28;20038;-46
2023/06/19 11:13:16;;;;;;;7.85;6.00;;;;;;;23.60;52.88;101265.56;5023497;28;20095;-47
2023/06/19 11:15:42;;;;;;;9.00;6.23;;;;;;;23.62;52.34;101263.50;5025500;28;20033;-46
2023/06/19 11:18:07;;;;;;;10.85;6.40;;;;;;;23.62;52.50;101266.22;5022391;28;20438;-46
2023/06/19 11:20:50;;;;;;;6.65;5.72;;;;;;;23.63;52.79;101259.78;5022412;28;20029;-47